< < Back
Terminal Aerodrome Forecast


Current Version              Previous Versions:   1  2  3  4  5  6  7  8  9  

Terminal Aerodrome Forecast

226
FTUS44 KBMX 241137
TAFMGM
TAF
KMGM 241137Z 2412/2512 10006KT P6SM SCT015 SCT250
      TEMPO 2412/2414 P6SM BKN015
     FM241400 11009KT P6SM SCT015 BKN035
     FM241600 12010KT P6SM SCT025 BKN050
     FM242100 15010KT P6SM BKN040
     FM250200 12008KT P6SM BKN025=



Latest METAR

034
SAUS80 KWBC 250300
MTRMGM
METAR KMGM 250253Z 11005KT 10SM SCT055 SCT070 24/20 A3015 RMK AO2 SLP207
T02440200 53010


USA.gov is the U.S. government's official web portal to all federal, state and local government web resources and services.